Hlavní strana
METAR-TAF:

METAR-TAF

Letiště :

Alta, Norsko

zeměpisná šířka: 69-59N, zeměpisná délka: 023-22E, výška: 0 m

Aktuální stav počasí

Zpráva byla vytvořena před 16 minutami, v 09:50 UTC
Jihojihovýchodní vítr 10 kt
Teplota -5°C
Vlhkost vzduchu 68%
Tlak 1028 hPa
Viditelnost 10 km a více
Žádná oblačnost pod 1500 m, nevyskytují se cumulonimby.

METAR: ENAT 190950Z 15010KT CAVOK M05/M10 Q1028 RMK WIND 700FT 15017KT

Čas: 11:06 (10:06 UTC)

Předpověď počasí

Zpráva byla vytvořena před 2 hodinami a 6 minutami, v 08:00 UTC
Předpověď platná od 19 v 09 UTC do 19 v 18 UTC
Jihojihovýchodní vítr 8 kt
Viditelnost 10 km a více
Skoro jasno ve výšce 2000 ft

TAF: ENAT 190800Z 1909/1918 16008KT 9999 FEW020

Stav a předpovědi počasí z více než 4 000 letišť (zprávy METAR a TAF).

Červené a žluté tečky na mapě představují dostupné meteorologické stanice.

Když kurzor umístíte na tečku, zobrazí se název stanice.

Pak kliknutím zobrazíte stav a předpověď počasí.

Chcete-li změnit mapu, kliknutím na zelené tlačítko se znaménkem +mapu přiblížíte, kliknutím na zelené tlačítko se znaménkem – mapu oddálíte a kliknutím na zelené šipky přejdete na sousední mapy.


METAR-TAF: